sensor_id;sensor_type;location;lat;lon;timestamp;P1;durP1;ratioP1;P2;durP2;ratioP2
23123;SDS011;11731;48.592;8.858;2023-05-14T00:01:49;8.50;;;7.23;;
23123;SDS011;11731;48.592;8.858;2023-05-14T00:04:16;7.57;;;6.53;;
23123;SDS011;11731;48.592;8.858;2023-05-14T00:06:45;6.93;;;6.23;;
23123;SDS011;11731;48.592;8.858;2023-05-14T00:09:11;7.53;;;6.57;;
23123;SDS011;11731;48.592;8.858;2023-05-14T00:11:38;7.60;;;6.73;;
23123;SDS011;11731;48.592;8.858;2023-05-14T00:14:22;8.07;;;6.73;;
23123;SDS011;11731;48.592;8.858;2023-05-14T00:16:56;8.10;;;6.37;;
23123;SDS011;11731;48.592;8.858;2023-05-14T00:19:26;9.10;;;6.60;;
23123;SDS011;11731;48.592;8.858;2023-05-14T00:22:00;7.40;;;6.70;;
23123;SDS011;11731;48.592;8.858;2023-05-14T00:24:47;7.83;;;7.03;;
23123;SDS011;11731;48.592;8.858;2023-05-14T00:27:14;7.53;;;6.67;;
23123;SDS011;11731;48.592;8.858;2023-05-14T00:29:41;7.10;;;6.30;;
23123;SDS011;11731;48.592;8.858;2023-05-14T00:32:09;8.10;;;6.10;;
23123;SDS011;11731;48.592;8.858;2023-05-14T00:34:56;7.40;;;6.60;;
23123;SDS011;11731;48.592;8.858;2023-05-14T00:37:50;6.80;;;6.20;;
23123;SDS011;11731;48.592;8.858;2023-05-14T00:40:17;7.10;;;6.43;;
23123;SDS011;11731;48.592;8.858;2023-05-14T00:42:49;6.53;;;5.93;;
23123;SDS011;11731;48.592;8.858;2023-05-14T00:45:15;7.50;;;6.70;;
23123;SDS011;11731;48.592;8.858;2023-05-14T00:47:43;6.53;;;5.87;;
23123;SDS011;11731;48.592;8.858;2023-05-14T00:50:28;6.80;;;6.10;;
23123;SDS011;11731;48.592;8.858;2023-05-14T00:52:56;6.70;;;6.00;;
23123;SDS011;11731;48.592;8.858;2023-05-14T00:55:23;8.17;;;6.73;;
23123;SDS011;11731;48.592;8.858;2023-05-14T00:57:51;7.13;;;6.43;;
23123;SDS011;11731;48.592;8.858;2023-05-14T01:00:22;7.13;;;6.33;;
23123;SDS011;11731;48.592;8.858;2023-05-14T01:02:49;6.90;;;6.13;;
23123;SDS011;11731;48.592;8.858;2023-05-14T01:05:16;6.50;;;5.90;;
23123;SDS011;11731;48.592;8.858;2023-05-14T01:08:24;8.03;;;6.10;;
23123;SDS011;11731;48.592;8.858;2023-05-14T01:10:55;6.30;;;5.70;;
23123;SDS011;11731;48.592;8.858;2023-05-14T01:13:32;7.30;;;6.60;;
23123;SDS011;11731;48.592;8.858;2023-05-14T01:16:11;8.17;;;6.57;;
23123;SDS011;11731;48.592;8.858;2023-05-14T01:18:41;7.20;;;6.20;;
23123;SDS011;11731;48.592;8.858;2023-05-14T01:21:17;6.60;;;6.00;;
23123;SDS011;11731;48.592;8.858;2023-05-14T01:23:58;6.83;;;6.17;;
23123;SDS011;11731;48.592;8.858;2023-05-14T01:26:25;8.17;;;7.07;;
23123;SDS011;11731;48.592;8.858;2023-05-14T01:28:52;8.73;;;6.60;;
23123;SDS011;11731;48.592;8.858;2023-05-14T01:31:23;6.53;;;5.93;;
23123;SDS011;11731;48.592;8.858;2023-05-14T01:37:15;7.17;;;6.43;;
23123;SDS011;11731;48.592;8.858;2023-05-14T01:39:45;6.43;;;5.80;;
23123;SDS011;11731;48.592;8.858;2023-05-14T01:42:15;7.27;;;6.57;;
23123;SDS011;11731;48.592;8.858;2023-05-14T01:44:45;6.63;;;5.93;;
23123;SDS011;11731;48.592;8.858;2023-05-14T01:47:17;7.97;;;6.63;;
23123;SDS011;11731;48.592;8.858;2023-05-14T01:49:44;7.83;;;7.03;;
23123;SDS011;11731;48.592;8.858;2023-05-14T01:52:11;7.23;;;6.53;;
23123;SDS011;11731;48.592;8.858;2023-05-14T01:55:22;7.83;;;6.77;;
23123;SDS011;11731;48.592;8.858;2023-05-14T01:57:49;6.90;;;6.30;;
23123;SDS011;11731;48.592;8.858;2023-05-14T02:00:23;7.00;;;6.23;;
23123;SDS011;11731;48.592;8.858;2023-05-14T02:02:50;7.60;;;6.70;;
23123;SDS011;11731;48.592;8.858;2023-05-14T02:05:17;7.97;;;6.60;;
23123;SDS011;11731;48.592;8.858;2023-05-14T02:07:49;7.40;;;6.70;;
23123;SDS011;11731;48.592;8.858;2023-05-14T02:10:16;7.10;;;6.50;;
23123;SDS011;11731;48.592;8.858;2023-05-14T02:12:44;7.07;;;6.33;;
23123;SDS011;11731;48.592;8.858;2023-05-14T02:15:13;7.40;;;6.70;;
23123;SDS011;11731;48.592;8.858;2023-05-14T02:17:45;7.97;;;7.17;;
23123;SDS011;11731;48.592;8.858;2023-05-14T02:20:13;7.83;;;7.03;;
23123;SDS011;11731;48.592;8.858;2023-05-14T02:22:40;7.50;;;6.70;;
23123;SDS011;11731;48.592;8.858;2023-05-14T02:25:09;7.77;;;6.80;;
23123;SDS011;11731;48.592;8.858;2023-05-14T02:27:36;7.30;;;6.50;;
23123;SDS011;11731;48.592;8.858;2023-05-14T02:30:09;9.47;;;6.60;;
23123;SDS011;11731;48.592;8.858;2023-05-14T02:32:36;8.27;;;6.83;;
23123;SDS011;11731;48.592;8.858;2023-05-14T02:35:09;7.20;;;6.50;;
23123;SDS011;11731;48.592;8.858;2023-05-14T02:37:49;8.73;;;7.30;;
23123;SDS011;11731;48.592;8.858;2023-05-14T02:40:16;10.83;;;7.33;;
23123;SDS011;11731;48.592;8.858;2023-05-14T02:42:43;8.77;;;7.37;;
23123;SDS011;11731;48.592;8.858;2023-05-14T02:45:11;7.73;;;6.97;;
23123;SDS011;11731;48.592;8.858;2023-05-14T02:47:38;8.30;;;7.43;;
23123;SDS011;11731;48.592;8.858;2023-05-14T02:50:06;8.23;;;7.23;;
23123;SDS011;11731;48.592;8.858;2023-05-14T02:52:35;8.57;;;7.20;;
23123;SDS011;11731;48.592;8.858;2023-05-14T02:55:04;8.53;;;6.97;;
23123;SDS011;11731;48.592;8.858;2023-05-14T02:57:32;8.57;;;7.37;;
23123;SDS011;11731;48.592;8.858;2023-05-14T03:00:19;8.30;;;7.50;;
23123;SDS011;11731;48.592;8.858;2023-05-14T03:02:54;8.67;;;7.07;;
23123;SDS011;11731;48.592;8.858;2023-05-14T03:05:41;8.30;;;6.70;;
23123;SDS011;11731;48.592;8.858;2023-05-14T03:08:43;8.43;;;7.50;;
23123;SDS011;11731;48.592;8.858;2023-05-14T03:11:43;8.50;;;7.70;;
23123;SDS011;11731;48.592;8.858;2023-05-14T03:14:17;9.17;;;7.53;;
23123;SDS011;11731;48.592;8.858;2023-05-14T03:16:56;8.63;;;7.73;;
23123;SDS011;11731;48.592;8.858;2023-05-14T03:22:37;9.00;;;8.10;;
23123;SDS011;11731;48.592;8.858;2023-05-14T03:25:05;10.50;;;8.23;;
23123;SDS011;11731;48.592;8.858;2023-05-14T03:27:34;8.00;;;7.20;;
23123;SDS011;11731;48.592;8.858;2023-05-14T03:30:01;8.93;;;7.40;;
23123;SDS011;11731;48.592;8.858;2023-05-14T03:32:30;8.63;;;7.33;;
23123;SDS011;11731;48.592;8.858;2023-05-14T03:34:57;8.10;;;7.20;;
23123;SDS011;11731;48.592;8.858;2023-05-14T03:37:24;11.33;;;8.13;;
23123;SDS011;11731;48.592;8.858;2023-05-14T03:39:51;8.30;;;7.20;;
23123;SDS011;11731;48.592;8.858;2023-05-14T03:42:18;9.23;;;7.90;;
23123;SDS011;11731;48.592;8.858;2023-05-14T03:44:44;9.47;;;7.80;;
23123;SDS011;11731;48.592;8.858;2023-05-14T03:47:15;8.70;;;7.87;;
23123;SDS011;11731;48.592;8.858;2023-05-14T03:50:20;10.30;;;7.70;;
23123;SDS011;11731;48.592;8.858;2023-05-14T03:55:40;9.63;;;7.30;;
23123;SDS011;11731;48.592;8.858;2023-05-14T03:58:38;8.10;;;7.30;;
23123;SDS011;11731;48.592;8.858;2023-05-14T04:01:05;8.50;;;7.60;;
23123;SDS011;11731;48.592;8.858;2023-05-14T04:03:32;8.30;;;6.97;;
23123;SDS011;11731;48.592;8.858;2023-05-14T04:06:00;8.13;;;7.27;;
23123;SDS011;11731;48.592;8.858;2023-05-14T04:08:30;9.40;;;7.67;;
23123;SDS011;11731;48.592;8.858;2023-05-14T04:10:59;10.37;;;7.40;;
23123;SDS011;11731;48.592;8.858;2023-05-14T04:13:57;11.57;;;7.63;;
23123;SDS011;11731;48.592;8.858;2023-05-14T04:16:37;9.07;;;8.17;;
23123;SDS011;11731;48.592;8.858;2023-05-14T04:19:09;8.90;;;8.00;;
23123;SDS011;11731;48.592;8.858;2023-05-14T04:22:05;9.00;;;7.57;;
23123;SDS011;11731;48.592;8.858;2023-05-14T04:24:38;9.20;;;8.30;;
23123;SDS011;11731;48.592;8.858;2023-05-14T04:27:09;8.87;;;7.97;;
23123;SDS011;11731;48.592;8.858;2023-05-14T04:29:36;8.97;;;7.63;;
23123;SDS011;11731;48.592;8.858;2023-05-14T04:32:24;9.20;;;8.10;;
23123;SDS011;11731;48.592;8.858;2023-05-14T04:34:52;12.30;;;8.07;;
23123;SDS011;11731;48.592;8.858;2023-05-14T04:37:30;11.00;;;8.10;;
23123;SDS011;11731;48.592;8.858;2023-05-14T04:40:10;9.00;;;8.10;;
23123;SDS011;11731;48.592;8.858;2023-05-14T04:42:41;10.23;;;8.30;;
23123;SDS011;11731;48.592;8.858;2023-05-14T04:45:08;8.30;;;7.50;;
23123;SDS011;11731;48.592;8.858;2023-05-14T04:47:40;9.13;;;7.67;;
23123;SDS011;11731;48.592;8.858;2023-05-14T04:50:20;8.20;;;7.40;;
23123;SDS011;11731;48.592;8.858;2023-05-14T04:52:57;8.90;;;8.00;;
23123;SDS011;11731;48.592;8.858;2023-05-14T04:55:24;9.60;;;8.37;;
23123;SDS011;11731;48.592;8.858;2023-05-14T04:58:00;10.70;;;8.57;;
23123;SDS011;11731;48.592;8.858;2023-05-14T05:00:29;9.93;;;8.70;;
23123;SDS011;11731;48.592;8.858;2023-05-14T05:03:17;10.23;;;7.77;;
23123;SDS011;11731;48.592;8.858;2023-05-14T05:05:47;10.57;;;8.93;;
23123;SDS011;11731;48.592;8.858;2023-05-14T05:11:21;8.90;;;8.00;;
23123;SDS011;11731;48.592;8.858;2023-05-14T05:13:48;11.60;;;9.27;;
23123;SDS011;11731;48.592;8.858;2023-05-14T05:16:29;10.50;;;7.70;;
23123;SDS011;11731;48.592;8.858;2023-05-14T05:18:56;9.43;;;8.53;;
23123;SDS011;11731;48.592;8.858;2023-05-14T05:21:23;9.07;;;8.17;;
23123;SDS011;11731;48.592;8.858;2023-05-14T05:23:50;8.53;;;7.67;;
23123;SDS011;11731;48.592;8.858;2023-05-14T05:26:23;8.90;;;8.00;;
23123;SDS011;11731;48.592;8.858;2023-05-14T05:28:52;8.77;;;7.87;;
23123;SDS011;11731;48.592;8.858;2023-05-14T05:31:19;7.73;;;6.93;;
23123;SDS011;11731;48.592;8.858;2023-05-14T05:34:54;10.63;;;8.33;;
23123;SDS011;11731;48.592;8.858;2023-05-14T05:37:09;8.70;;;7.80;;
23123;SDS011;11731;48.592;8.858;2023-05-14T05:40:08;8.37;;;7.23;;
23123;SDS011;11731;48.592;8.858;2023-05-14T05:48:50;8.27;;;7.43;;
23123;SDS011;11731;48.592;8.858;2023-05-14T05:54:24;8.27;;;6.77;;
23123;SDS011;11731;48.592;8.858;2023-05-14T05:56:51;8.07;;;7.20;;
23123;SDS011;11731;48.592;8.858;2023-05-14T05:59:18;7.43;;;6.73;;
23123;SDS011;11731;48.592;8.858;2023-05-14T06:01:51;8.77;;;7.37;;
23123;SDS011;11731;48.592;8.858;2023-05-14T06:07:49;8.80;;;7.63;;
23123;SDS011;11731;48.592;8.858;2023-05-14T06:10:47;8.40;;;7.50;;
23123;SDS011;11731;48.592;8.858;2023-05-14T06:13:05;7.50;;;6.70;;
23123;SDS011;11731;48.592;8.858;2023-05-14T06:15:33;7.87;;;7.03;;
23123;SDS011;11731;48.592;8.858;2023-05-14T06:18:00;9.47;;;6.67;;
23123;SDS011;11731;48.592;8.858;2023-05-14T06:20:27;7.37;;;6.57;;
23123;SDS011;11731;48.592;8.858;2023-05-14T06:29:14;7.33;;;6.63;;
23123;SDS011;11731;48.592;8.858;2023-05-14T06:32:05;8.13;;;6.63;;
23123;SDS011;11731;48.592;8.858;2023-05-14T06:34:33;8.03;;;7.27;;
23123;SDS011;11731;48.592;8.858;2023-05-14T06:37:00;7.40;;;6.60;;
23123;SDS011;11731;48.592;8.858;2023-05-14T06:39:39;9.87;;;7.40;;
23123;SDS011;11731;48.592;8.858;2023-05-14T06:42:10;7.67;;;6.97;;
23123;SDS011;11731;48.592;8.858;2023-05-14T06:44:37;9.60;;;7.33;;
23123;SDS011;11731;48.592;8.858;2023-05-14T06:47:07;8.60;;;7.50;;
23123;SDS011;11731;48.592;8.858;2023-05-14T06:49:33;8.30;;;7.40;;
23123;SDS011;11731;48.592;8.858;2023-05-14T06:52:00;8.83;;;7.00;;
23123;SDS011;11731;48.592;8.858;2023-05-14T06:54:40;9.63;;;8.13;;
23123;SDS011;11731;48.592;8.858;2023-05-14T06:57:07;8.77;;;7.17;;
23123;SDS011;11731;48.592;8.858;2023-05-14T06:59:34;9.87;;;8.03;;
23123;SDS011;11731;48.592;8.858;2023-05-14T07:02:03;8.67;;;7.73;;
23123;SDS011;11731;48.592;8.858;2023-05-14T07:04:30;8.70;;;7.80;;
23123;SDS011;11731;48.592;8.858;2023-05-14T07:06:56;11.73;;;8.33;;
23123;SDS011;11731;48.592;8.858;2023-05-14T07:09:23;8.93;;;7.57;;
23123;SDS011;11731;48.592;8.858;2023-05-14T07:11:52;9.63;;;7.67;;
23123;SDS011;11731;48.592;8.858;2023-05-14T07:14:25;8.03;;;7.23;;
23123;SDS011;11731;48.592;8.858;2023-05-14T07:16:52;9.90;;;8.03;;
23123;SDS011;11731;48.592;8.858;2023-05-14T07:19:33;8.43;;;7.53;;
23123;SDS011;11731;48.592;8.858;2023-05-14T07:22:00;8.13;;;7.33;;
23123;SDS011;11731;48.592;8.858;2023-05-14T07:24:27;7.70;;;6.90;;
23123;SDS011;11731;48.592;8.858;2023-05-14T07:27:07;7.70;;;6.93;;
23123;SDS011;11731;48.592;8.858;2023-05-14T07:34:06;10.23;;;8.03;;
23123;SDS011;11731;48.592;8.858;2023-05-14T07:35:51;7.63;;;6.73;;
23123;SDS011;11731;48.592;8.858;2023-05-14T07:38:18;7.90;;;7.10;;
23123;SDS011;11731;48.592;8.858;2023-05-14T07:40:45;8.60;;;7.67;;
23123;SDS011;11731;48.592;8.858;2023-05-14T07:43:14;7.77;;;6.97;;
23123;SDS011;11731;48.592;8.858;2023-05-14T07:48:37;8.07;;;6.93;;
23123;SDS011;11731;48.592;8.858;2023-05-14T07:51:04;8.73;;;7.60;;
23123;SDS011;11731;48.592;8.858;2023-05-14T07:53:31;8.37;;;7.07;;
23123;SDS011;11731;48.592;8.858;2023-05-14T07:55:58;7.83;;;7.03;;
23123;SDS011;11731;48.592;8.858;2023-05-14T07:58:26;8.00;;;7.20;;
23123;SDS011;11731;48.592;8.858;2023-05-14T08:00:53;7.83;;;7.00;;
23123;SDS011;11731;48.592;8.858;2023-05-14T08:03:21;7.60;;;6.80;;
23123;SDS011;11731;48.592;8.858;2023-05-14T08:11:17;7.43;;;6.70;;
23123;SDS011;11731;48.592;8.858;2023-05-14T08:13:45;7.67;;;6.93;;
23123;SDS011;11731;48.592;8.858;2023-05-14T08:19:29;7.53;;;6.73;;
23123;SDS011;11731;48.592;8.858;2023-05-14T08:21:56;7.53;;;6.70;;
23123;SDS011;11731;48.592;8.858;2023-05-14T08:24:23;8.67;;;7.87;;
23123;SDS011;11731;48.592;8.858;2023-05-14T08:26:50;8.50;;;7.70;;
23123;SDS011;11731;48.592;8.858;2023-05-14T08:29:18;7.80;;;7.00;;
23123;SDS011;11731;48.592;8.858;2023-05-14T08:31:45;8.33;;;7.40;;
23123;SDS011;11731;48.592;8.858;2023-05-14T08:34:13;8.73;;;7.47;;
23123;SDS011;11731;48.592;8.858;2023-05-14T08:36:40;8.73;;;7.67;;
23123;SDS011;11731;48.592;8.858;2023-05-14T08:39:07;8.13;;;7.30;;
23123;SDS011;11731;48.592;8.858;2023-05-14T08:41:34;9.30;;;7.23;;
23123;SDS011;11731;48.592;8.858;2023-05-14T08:44:04;8.93;;;7.17;;
23123;SDS011;11731;48.592;8.858;2023-05-14T08:46:35;7.77;;;7.07;;
23123;SDS011;11731;48.592;8.858;2023-05-14T08:49:05;9.97;;;8.10;;
23123;SDS011;11731;48.592;8.858;2023-05-14T08:51:41;8.07;;;7.27;;
23123;SDS011;11731;48.592;8.858;2023-05-14T08:54:09;7.17;;;6.47;;
23123;SDS011;11731;48.592;8.858;2023-05-14T08:56:41;8.00;;;7.07;;
23123;SDS011;11731;48.592;8.858;2023-05-14T08:59:09;7.90;;;7.10;;
23123;SDS011;11731;48.592;8.858;2023-05-14T09:01:41;9.57;;;6.97;;
23123;SDS011;11731;48.592;8.858;2023-05-14T09:04:12;8.20;;;7.30;;
23123;SDS011;11731;48.592;8.858;2023-05-14T09:06:41;8.03;;;7.23;;
23123;SDS011;11731;48.592;8.858;2023-05-14T09:09:09;8.57;;;7.00;;
23123;SDS011;11731;48.592;8.858;2023-05-14T09:11:39;8.50;;;7.00;;
23123;SDS011;11731;48.592;8.858;2023-05-14T09:14:06;7.80;;;7.10;;
23123;SDS011;11731;48.592;8.858;2023-05-14T09:16:33;9.20;;;7.23;;
23123;SDS011;11731;48.592;8.858;2023-05-14T09:19:03;8.63;;;7.73;;
23123;SDS011;11731;48.592;8.858;2023-05-14T09:21:29;9.07;;;7.03;;
23123;SDS011;11731;48.592;8.858;2023-05-14T09:23:57;7.97;;;7.10;;
23123;SDS011;11731;48.592;8.858;2023-05-14T09:26:24;9.10;;;7.07;;
23123;SDS011;11731;48.592;8.858;2023-05-14T09:28:52;8.37;;;7.57;;
23123;SDS011;11731;48.592;8.858;2023-05-14T09:31:20;8.80;;;7.90;;
23123;SDS011;11731;48.592;8.858;2023-05-14T09:33:49;9.17;;;7.80;;
23123;SDS011;11731;48.592;8.858;2023-05-14T09:36:17;8.17;;;7.37;;
23123;SDS011;11731;48.592;8.858;2023-05-14T09:38:45;7.67;;;6.90;;
23123;SDS011;11731;48.592;8.858;2023-05-14T09:41:12;8.50;;;6.77;;
23123;SDS011;11731;48.592;8.858;2023-05-14T09:43:39;8.30;;;7.40;;
23123;SDS011;11731;48.592;8.858;2023-05-14T09:46:05;9.63;;;7.60;;
23123;SDS011;11731;48.592;8.858;2023-05-14T09:48:32;7.93;;;6.90;;
23123;SDS011;11731;48.592;8.858;2023-05-14T09:50:59;8.10;;;7.03;;
23123;SDS011;11731;48.592;8.858;2023-05-14T09:53:27;7.87;;;7.10;;
23123;SDS011;11731;48.592;8.858;2023-05-14T09:55:55;7.37;;;6.67;;
23123;SDS011;11731;48.592;8.858;2023-05-14T09:58:22;7.47;;;6.63;;
23123;SDS011;11731;48.592;8.858;2023-05-14T10:00:49;11.33;;;7.20;;
23123;SDS011;11731;48.592;8.858;2023-05-14T10:03:16;7.67;;;6.27;;
23123;SDS011;11731;48.592;8.858;2023-05-14T10:05:45;6.90;;;6.23;;
23123;SDS011;11731;48.592;8.858;2023-05-14T10:08:16;7.57;;;5.43;;
23123;SDS011;11731;48.592;8.858;2023-05-14T10:10:48;6.33;;;5.73;;
23123;SDS011;11731;48.592;8.858;2023-05-14T10:13:18;6.47;;;5.80;;
23123;SDS011;11731;48.592;8.858;2023-05-14T10:15:47;7.00;;;5.63;;
23123;SDS011;11731;48.592;8.858;2023-05-14T10:18:18;5.83;;;5.27;;
23123;SDS011;11731;48.592;8.858;2023-05-14T10:20:56;5.83;;;5.33;;
23123;SDS011;11731;48.592;8.858;2023-05-14T10:23:29;7.27;;;5.57;;
23123;SDS011;11731;48.592;8.858;2023-05-14T10:25:57;5.47;;;4.97;;
23123;SDS011;11731;48.592;8.858;2023-05-14T10:28:25;5.13;;;4.63;;
23123;SDS011;11731;48.592;8.858;2023-05-14T10:30:53;5.33;;;4.57;;
23123;SDS011;11731;48.592;8.858;2023-05-14T10:33:20;6.03;;;5.00;;
23123;SDS011;11731;48.592;8.858;2023-05-14T10:38:33;5.63;;;4.83;;
23123;SDS011;11731;48.592;8.858;2023-05-14T10:41:02;5.23;;;4.70;;
23123;SDS011;11731;48.592;8.858;2023-05-14T10:43:31;5.23;;;4.73;;
23123;SDS011;11731;48.592;8.858;2023-05-14T10:46:02;5.93;;;4.47;;
23123;SDS011;11731;48.592;8.858;2023-05-14T10:48:29;4.20;;;3.50;;
23123;SDS011;11731;48.592;8.858;2023-05-14T10:50:57;5.23;;;3.90;;
23123;SDS011;11731;48.592;8.858;2023-05-14T10:53:33;4.30;;;3.90;;
23123;SDS011;11731;48.592;8.858;2023-05-14T10:56:04;5.10;;;4.53;;
23123;SDS011;11731;48.592;8.858;2023-05-14T10:58:33;6.07;;;5.33;;
23123;SDS011;11731;48.592;8.858;2023-05-14T11:01:02;6.03;;;5.20;;
23123;SDS011;11731;48.592;8.858;2023-05-14T11:03:31;5.63;;;5.10;;
23123;SDS011;11731;48.592;8.858;2023-05-14T11:06:03;7.97;;;6.17;;
23123;SDS011;11731;48.592;8.858;2023-05-14T11:08:31;7.20;;;6.47;;
23123;SDS011;11731;48.592;8.858;2023-05-14T11:11:00;7.53;;;6.73;;
23123;SDS011;11731;48.592;8.858;2023-05-14T11:13:29;6.83;;;6.20;;
23123;SDS011;11731;48.592;8.858;2023-05-14T11:15:56;10.90;;;7.30;;
23123;SDS011;11731;48.592;8.858;2023-05-14T11:18:26;8.60;;;7.27;;
23123;SDS011;11731;48.592;8.858;2023-05-14T11:20:53;10.43;;;7.30;;
23123;SDS011;11731;48.592;8.858;2023-05-14T11:23:23;10.10;;;7.53;;
23123;SDS011;11731;48.592;8.858;2023-05-14T11:25:50;9.73;;;7.23;;
23123;SDS011;11731;48.592;8.858;2023-05-14T11:28:19;8.07;;;6.30;;
23123;SDS011;11731;48.592;8.858;2023-05-14T11:30:48;9.07;;;6.90;;
23123;SDS011;11731;48.592;8.858;2023-05-14T11:33:16;7.90;;;6.80;;
23123;SDS011;11731;48.592;8.858;2023-05-14T11:35:43;9.03;;;7.70;;
23123;SDS011;11731;48.592;8.858;2023-05-14T11:38:14;9.13;;;6.43;;
23123;SDS011;11731;48.592;8.858;2023-05-14T11:40:42;6.30;;;5.50;;
23123;SDS011;11731;48.592;8.858;2023-05-14T11:43:16;6.73;;;6.00;;
23123;SDS011;11731;48.592;8.858;2023-05-14T11:45:43;6.70;;;5.87;;
23123;SDS011;11731;48.592;8.858;2023-05-14T11:48:16;7.10;;;6.40;;
23123;SDS011;11731;48.592;8.858;2023-05-14T11:50:43;6.73;;;5.90;;
23123;SDS011;11731;48.592;8.858;2023-05-14T11:53:15;7.53;;;6.47;;
23123;SDS011;11731;48.592;8.858;2023-05-14T11:55:43;6.50;;;5.83;;
23123;SDS011;11731;48.592;8.858;2023-05-14T11:58:10;6.10;;;5.50;;
23123;SDS011;11731;48.592;8.858;2023-05-14T12:00:38;9.97;;;6.20;;
23123;SDS011;11731;48.592;8.858;2023-05-14T12:03:07;8.57;;;6.13;;
23123;SDS011;11731;48.592;8.858;2023-05-14T12:05:36;8.70;;;6.67;;
23123;SDS011;11731;48.592;8.858;2023-05-14T12:08:18;8.27;;;7.47;;
23123;SDS011;11731;48.592;8.858;2023-05-14T12:10:45;6.80;;;6.00;;
23123;SDS011;11731;48.592;8.858;2023-05-14T12:13:13;8.07;;;6.37;;
23123;SDS011;11731;48.592;8.858;2023-05-14T12:15:43;7.33;;;6.50;;
23123;SDS011;11731;48.592;8.858;2023-05-14T12:18:12;8.70;;;5.93;;
23123;SDS011;11731;48.592;8.858;2023-05-14T12:20:39;6.77;;;5.37;;
23123;SDS011;11731;48.592;8.858;2023-05-14T12:23:11;6.17;;;5.20;;
23123;SDS011;11731;48.592;8.858;2023-05-14T12:25:38;5.73;;;5.13;;
23123;SDS011;11731;48.592;8.858;2023-05-14T12:28:12;5.87;;;5.27;;
23123;SDS011;11731;48.592;8.858;2023-05-14T12:30:39;8.10;;;5.73;;
23123;SDS011;11731;48.592;8.858;2023-05-14T12:33:06;6.20;;;5.00;;
23123;SDS011;11731;48.592;8.858;2023-05-14T12:35:34;5.17;;;4.70;;
23123;SDS011;11731;48.592;8.858;2023-05-14T12:38:02;4.90;;;4.40;;
23123;SDS011;11731;48.592;8.858;2023-05-14T12:40:29;6.00;;;4.30;;
23123;SDS011;11731;48.592;8.858;2023-05-14T12:42:55;4.67;;;4.07;;
23123;SDS011;11731;48.592;8.858;2023-05-14T12:45:22;6.27;;;4.80;;
23123;SDS011;11731;48.592;8.858;2023-05-14T12:47:49;7.73;;;5.20;;
23123;SDS011;11731;48.592;8.858;2023-05-14T12:50:16;6.87;;;5.67;;
23123;SDS011;11731;48.592;8.858;2023-05-14T12:52:44;8.63;;;6.27;;
23123;SDS011;11731;48.592;8.858;2023-05-14T12:55:11;7.70;;;5.50;;
23123;SDS011;11731;48.592;8.858;2023-05-14T12:57:38;7.27;;;6.47;;
23123;SDS011;11731;48.592;8.858;2023-05-14T13:00:05;6.83;;;5.57;;
23123;SDS011;11731;48.592;8.858;2023-05-14T13:02:34;7.73;;;6.17;;
23123;SDS011;11731;48.592;8.858;2023-05-14T13:05:01;6.37;;;5.77;;
23123;SDS011;11731;48.592;8.858;2023-05-14T13:07:28;6.77;;;6.07;;
23123;SDS011;11731;48.592;8.858;2023-05-14T13:09:56;7.37;;;6.00;;
23123;SDS011;11731;48.592;8.858;2023-05-14T13:12:23;8.27;;;6.07;;
23123;SDS011;11731;48.592;8.858;2023-05-14T13:14:50;6.03;;;5.43;;
23123;SDS011;11731;48.592;8.858;2023-05-14T13:17:17;5.77;;;5.03;;
23123;SDS011;11731;48.592;8.858;2023-05-14T13:19:44;6.63;;;5.30;;
23123;SDS011;11731;48.592;8.858;2023-05-14T13:22:11;5.33;;;4.83;;
23123;SDS011;11731;48.592;8.858;2023-05-14T13:24:38;6.50;;;5.33;;
23123;SDS011;11731;48.592;8.858;2023-05-14T13:27:06;5.67;;;5.17;;
23123;SDS011;11731;48.592;8.858;2023-05-14T13:29:33;4.90;;;4.50;;
23123;SDS011;11731;48.592;8.858;2023-05-14T13:32:00;5.93;;;4.17;;
23123;SDS011;11731;48.592;8.858;2023-05-14T13:34:27;6.30;;;5.40;;
23123;SDS011;11731;48.592;8.858;2023-05-14T13:36:54;4.97;;;4.47;;
23123;SDS011;11731;48.592;8.858;2023-05-14T13:39:21;5.37;;;4.27;;
23123;SDS011;11731;48.592;8.858;2023-05-14T13:41:51;4.93;;;4.43;;
23123;SDS011;11731;48.592;8.858;2023-05-14T13:44:21;9.27;;;5.30;;
23123;SDS011;11731;48.592;8.858;2023-05-14T13:46:48;4.60;;;3.90;;
23123;SDS011;11731;48.592;8.858;2023-05-14T13:49:15;4.70;;;3.97;;
23123;SDS011;11731;48.592;8.858;2023-05-14T13:51:42;10.73;;;6.67;;
23123;SDS011;11731;48.592;8.858;2023-05-14T13:54:09;9.37;;;7.00;;
23123;SDS011;11731;48.592;8.858;2023-05-14T13:56:35;8.00;;;6.40;;
23123;SDS011;11731;48.592;8.858;2023-05-14T13:59:02;10.33;;;7.80;;
23123;SDS011;11731;48.592;8.858;2023-05-14T14:01:31;9.87;;;6.80;;
23123;SDS011;11731;48.592;8.858;2023-05-14T14:03:58;8.63;;;7.40;;
23123;SDS011;11731;48.592;8.858;2023-05-14T14:06:25;12.07;;;7.97;;
23123;SDS011;11731;48.592;8.858;2023-05-14T14:08:52;9.47;;;7.17;;
23123;SDS011;11731;48.592;8.858;2023-05-14T14:11:19;8.77;;;7.57;;
23123;SDS011;11731;48.592;8.858;2023-05-14T14:13:45;11.13;;;7.63;;
23123;SDS011;11731;48.592;8.858;2023-05-14T14:16:13;9.50;;;7.77;;
23123;SDS011;11731;48.592;8.858;2023-05-14T14:18:41;11.00;;;8.43;;
23123;SDS011;11731;48.592;8.858;2023-05-14T14:21:08;11.00;;;8.27;;
23123;SDS011;11731;48.592;8.858;2023-05-14T14:23:36;9.53;;;8.43;;
23123;SDS011;11731;48.592;8.858;2023-05-14T14:26:02;11.90;;;7.10;;
23123;SDS011;11731;48.592;8.858;2023-05-14T14:28:29;7.90;;;7.10;;
23123;SDS011;11731;48.592;8.858;2023-05-14T14:30:57;10.87;;;6.63;;
23123;SDS011;11731;48.592;8.858;2023-05-14T14:33:24;7.60;;;6.67;;
23123;SDS011;11731;48.592;8.858;2023-05-14T14:35:52;8.07;;;7.27;;
23123;SDS011;11731;48.592;8.858;2023-05-14T14:38:19;8.57;;;7.60;;
23123;SDS011;11731;48.592;8.858;2023-05-14T14:40:46;9.10;;;6.93;;
23123;SDS011;11731;48.592;8.858;2023-05-14T14:43:13;9.97;;;7.47;;
23123;SDS011;11731;48.592;8.858;2023-05-14T14:45:40;7.57;;;6.80;;
23123;SDS011;11731;48.592;8.858;2023-05-14T14:50:53;7.37;;;6.40;;
23123;SDS011;11731;48.592;8.858;2023-05-14T14:53:20;6.97;;;5.70;;
23123;SDS011;11731;48.592;8.858;2023-05-14T14:55:48;5.97;;;4.87;;
23123;SDS011;11731;48.592;8.858;2023-05-14T14:58:26;4.73;;;4.07;;
23123;SDS011;11731;48.592;8.858;2023-05-14T15:00:55;10.17;;;5.07;;
23123;SDS011;11731;48.592;8.858;2023-05-14T15:03:23;7.10;;;5.83;;
23123;SDS011;11731;48.592;8.858;2023-05-14T15:06:07;7.60;;;5.30;;
23123;SDS011;11731;48.592;8.858;2023-05-14T15:08:34;7.90;;;4.90;;
23123;SDS011;11731;48.592;8.858;2023-05-14T15:14:29;4.97;;;4.30;;
23123;SDS011;11731;48.592;8.858;2023-05-14T15:17:49;5.07;;;4.57;;
23123;SDS011;11731;48.592;8.858;2023-05-14T15:21:09;5.10;;;4.40;;
23123;SDS011;11731;48.592;8.858;2023-05-14T15:32:27;5.03;;;4.00;;
23123;SDS011;11731;48.592;8.858;2023-05-14T15:34:44;4.77;;;4.27;;
23123;SDS011;11731;48.592;8.858;2023-05-14T15:37:12;4.63;;;4.23;;
23123;SDS011;11731;48.592;8.858;2023-05-14T15:39:39;4.67;;;4.23;;
23123;SDS011;11731;48.592;8.858;2023-05-14T15:42:06;4.80;;;4.30;;
23123;SDS011;11731;48.592;8.858;2023-05-14T15:44:33;5.37;;;4.63;;
23123;SDS011;11731;48.592;8.858;2023-05-14T15:47:00;4.17;;;3.83;;
23123;SDS011;11731;48.592;8.858;2023-05-14T15:49:27;3.87;;;3.57;;
23123;SDS011;11731;48.592;8.858;2023-05-14T15:51:53;3.87;;;3.43;;
23123;SDS011;11731;48.592;8.858;2023-05-14T15:54:22;5.50;;;4.30;;
23123;SDS011;11731;48.592;8.858;2023-05-14T15:56:50;4.77;;;4.27;;
23123;SDS011;11731;48.592;8.858;2023-05-14T16:01:27;5.03;;;4.53;;
23123;SDS011;11731;48.592;8.858;2023-05-14T16:02:36;4.50;;;4.10;;
23123;SDS011;11731;48.592;8.858;2023-05-14T16:05:39;4.80;;;4.40;;
23123;SDS011;11731;48.592;8.858;2023-05-14T16:07:59;7.60;;;4.40;;
23123;SDS011;11731;48.592;8.858;2023-05-14T16:10:33;4.30;;;3.90;;
23123;SDS011;11731;48.592;8.858;2023-05-14T16:15:11;6.37;;;4.83;;